createdAt,value
2022-08-03T00:01:27.593Z,1.63
2022-08-03T00:03:54.934Z,1.63
2022-08-03T00:06:22.080Z,1.75
2022-08-03T00:08:50.326Z,1.40
2022-08-03T00:13:44.454Z,1.35
2022-08-03T00:16:12.052Z,1.45
2022-08-03T00:18:39.195Z,2.03
2022-08-03T00:21:06.478Z,1.70
2022-08-03T00:23:51.616Z,1.73
2022-08-03T00:26:19.207Z,1.67
2022-08-03T00:28:46.284Z,1.77
2022-08-03T00:31:13.869Z,1.95
2022-08-03T00:33:59.673Z,1.58
2022-08-03T00:36:28.718Z,1.98
2022-08-03T00:38:56.779Z,1.50
2022-08-03T00:41:23.956Z,1.88
2022-08-03T00:43:51.084Z,1.50
2022-08-03T00:46:21.813Z,1.55
2022-08-03T00:48:52.464Z,1.80
2022-08-03T00:51:20.768Z,1.73
2022-08-03T00:56:15.870Z,1.60
2022-08-03T00:58:44.358Z,2.10
2022-08-03T01:01:12.464Z,2.03
2022-08-03T01:03:39.915Z,1.65
2022-08-03T01:06:19.037Z,1.95
2022-08-03T01:09:04.863Z,1.48
2022-08-03T01:12:09.232Z,2.13
2022-08-03T01:14:36.976Z,2.00
2022-08-03T01:17:12.724Z,2.15
2022-08-03T01:19:39.924Z,2.10
2022-08-03T01:22:16.354Z,1.75
2022-08-03T01:25:07.073Z,2.38
2022-08-03T01:27:37.156Z,1.92
2022-08-03T01:30:08.593Z,1.77
2022-08-03T01:33:08.063Z,2.28
2022-08-03T01:35:58.120Z,2.63
2022-08-03T01:38:26.587Z,1.90
2022-08-03T01:40:57.559Z,1.95
2022-08-03T01:43:55.488Z,2.35
2022-08-03T01:46:16.565Z,2.17
2022-08-03T01:48:44.934Z,2.00
2022-08-03T01:51:12.520Z,2.30
2022-08-03T01:53:42.925Z,2.00
2022-08-03T01:56:10.924Z,2.53
2022-08-03T01:58:38.412Z,2.30
2022-08-03T02:01:06.456Z,1.88
2022-08-03T02:03:35.256Z,2.30
2022-08-03T02:07:00.815Z,2.58
2022-08-03T02:08:50.117Z,2.42
2022-08-03T02:11:17.441Z,2.03
2022-08-03T02:13:44.988Z,2.25
2022-08-03T02:16:12.548Z,2.40
2022-08-03T02:18:40.196Z,2.90
2022-08-03T02:21:10.883Z,2.75
2022-08-03T02:23:39.328Z,3.03
2022-08-03T02:26:08.083Z,2.30
2022-08-03T02:28:39.220Z,2.75
2022-08-03T02:31:07.796Z,2.40
2022-08-03T02:33:38.318Z,1.92
2022-08-03T02:36:06.204Z,3.47
2022-08-03T02:38:34.646Z,2.60
2022-08-03T02:41:02.733Z,2.42
2022-08-03T02:43:39.188Z,2.97
2022-08-03T02:46:20.627Z,2.50
2022-08-03T02:48:51.512Z,2.10
2022-08-03T02:51:20.087Z,2.50
2022-08-03T02:53:47.916Z,2.42
2022-08-03T02:56:15.525Z,2.70
2022-08-03T02:58:44.111Z,3.97
2022-08-03T03:01:11.846Z,3.42
2022-08-03T03:03:44.702Z,2.97
2022-08-03T03:06:13.175Z,4.22
2022-08-03T03:08:42.476Z,3.33
2022-08-03T03:11:10.685Z,3.40
2022-08-03T03:16:06.728Z,3.22
2022-08-03T03:18:34.047Z,3.70
2022-08-03T03:21:02.249Z,3.30
2022-08-03T03:23:29.569Z,2.90
2022-08-03T03:25:58.495Z,3.50
2022-08-03T03:28:25.993Z,3.65
2022-08-03T03:30:53.555Z,3.08
2022-08-03T03:33:21.623Z,3.35
2022-08-03T03:35:49.036Z,3.53
2022-08-03T03:38:16.312Z,3.15
2022-08-03T03:40:43.495Z,2.80
2022-08-03T03:43:11.433Z,3.20
2022-08-03T03:45:38.875Z,3.20
2022-08-03T03:48:06.209Z,3.28
2022-08-03T03:50:34.260Z,2.90
2022-08-03T03:53:02.133Z,3.03
2022-08-03T03:55:29.637Z,3.45
2022-08-03T03:57:56.848Z,2.97
2022-08-03T04:00:24.033Z,3.20
2022-08-03T04:02:51.137Z,3.40
2022-08-03T04:05:53.517Z,3.00
2022-08-03T04:08:39.361Z,3.40
2022-08-03T04:11:31.016Z,3.03
2022-08-03T04:14:04.936Z,3.03
2022-08-03T04:16:34.413Z,2.97
2022-08-03T04:19:05.496Z,2.90
2022-08-03T04:21:33.605Z,3.28
2022-08-03T04:24:02.493Z,3.22
2022-08-03T04:26:31.987Z,2.90
2022-08-03T04:28:59.463Z,2.90
2022-08-03T04:31:27.615Z,2.97
2022-08-03T04:33:55.186Z,2.80
2022-08-03T04:36:23.211Z,2.92
2022-08-03T04:39:10.574Z,3.35
2022-08-03T04:42:07.580Z,2.33
2022-08-03T04:44:28.386Z,3.10
2022-08-03T04:46:57.097Z,3.33
2022-08-03T04:49:24.619Z,2.95
2022-08-03T04:51:52.048Z,3.17
2022-08-03T04:54:19.207Z,3.00
2022-08-03T04:56:46.316Z,2.83
2022-08-03T04:59:13.531Z,3.03
2022-08-03T05:01:44.283Z,2.70
2022-08-03T05:04:11.487Z,2.90
2022-08-03T05:06:45.209Z,3.13
2022-08-03T05:09:15.408Z,2.97
2022-08-03T05:12:02.477Z,2.60
2022-08-03T05:14:29.591Z,3.20
2022-08-03T05:16:56.883Z,2.92
2022-08-03T05:19:24.012Z,2.78
2022-08-03T05:21:52.327Z,2.83
2022-08-03T05:24:19.932Z,3.25
2022-08-03T05:26:47.103Z,2.95
2022-08-03T05:29:14.241Z,2.53
2022-08-03T05:31:41.379Z,2.58
2022-08-03T05:34:08.553Z,3.20
2022-08-03T05:36:35.689Z,2.63
2022-08-03T05:39:03.075Z,2.42
2022-08-03T05:41:37.341Z,2.47
2022-08-03T05:44:04.832Z,2.97
2022-08-03T05:46:32.090Z,2.90
2022-08-03T05:48:59.259Z,3.20
2022-08-03T05:51:26.448Z,2.78
2022-08-03T05:53:53.557Z,2.75
2022-08-03T05:56:27.751Z,2.88
2022-08-03T05:58:54.895Z,3.00
2022-08-03T06:01:22.579Z,3.20
2022-08-03T06:03:50.543Z,2.75
2022-08-03T06:06:17.669Z,2.63
2022-08-03T06:08:45.383Z,2.65
2022-08-03T06:11:12.868Z,2.75
2022-08-03T06:16:07.133Z,2.80
2022-08-03T06:18:34.477Z,3.13
2022-08-03T06:21:14.787Z,2.42
2022-08-03T06:23:54.516Z,2.50
2022-08-03T06:26:23.160Z,2.90
2022-08-03T06:28:52.180Z,2.60
2022-08-03T06:31:21.892Z,2.65
2022-08-03T06:34:34.393Z,2.67
2022-08-03T06:36:36.018Z,2.72
2022-08-03T06:39:03.260Z,2.75
2022-08-03T06:41:30.370Z,2.53
2022-08-03T06:44:04.704Z,2.72
2022-08-03T06:46:31.886Z,2.65
2022-08-03T06:48:59.048Z,2.78
2022-08-03T06:52:04.287Z,2.72
2022-08-03T06:54:13.371Z,2.95
2022-08-03T06:56:40.582Z,2.90
2022-08-03T06:59:07.743Z,2.80
2022-08-03T07:01:34.916Z,2.17
2022-08-03T07:04:02.211Z,2.55
2022-08-03T07:06:29.293Z,2.85
2022-08-03T07:08:59.496Z,2.88
2022-08-03T07:11:28.544Z,2.60
2022-08-03T07:13:56.462Z,2.50
2022-08-03T07:16:23.766Z,2.70
2022-08-03T07:18:50.971Z,2.50
2022-08-03T07:21:18.081Z,3.10
2022-08-03T07:23:45.214Z,2.65
2022-08-03T07:26:13.107Z,2.03
2022-08-03T07:28:40.303Z,2.83
2022-08-03T07:31:08.052Z,2.80
2022-08-03T07:33:35.309Z,2.30
2022-08-03T07:36:02.469Z,2.47
2022-08-03T07:38:30.055Z,2.88
2022-08-03T07:40:57.169Z,2.53
2022-08-03T07:43:24.395Z,2.60
2022-08-03T07:45:51.542Z,2.75
2022-08-03T07:48:18.693Z,2.30
2022-08-03T07:50:46.294Z,2.67
2022-08-03T07:53:13.491Z,3.15
2022-08-03T07:55:40.599Z,2.83
2022-08-03T07:58:22.069Z,2.75
2022-08-03T08:00:56.596Z,2.85
2022-08-03T08:03:24.165Z,2.55
2022-08-03T08:05:51.383Z,2.78
2022-08-03T08:08:20.437Z,2.63
2022-08-03T08:10:58.574Z,2.53
2022-08-03T08:13:26.140Z,2.60
2022-08-03T08:15:53.366Z,2.40
2022-08-03T08:18:21.117Z,2.60
2022-08-03T08:20:50.431Z,2.53
2022-08-03T08:23:42.907Z,2.33
2022-08-03T08:28:37.121Z,2.90
2022-08-03T08:31:04.287Z,2.72
2022-08-03T08:33:54.208Z,2.47
2022-08-03T08:36:20.765Z,2.50
2022-08-03T08:38:49.917Z,2.58
2022-08-03T08:41:18.141Z,2.97
2022-08-03T08:43:45.395Z,2.60
2022-08-03T08:46:13.125Z,2.67
2022-08-03T08:48:51.401Z,2.80
2022-08-03T08:51:20.009Z,2.50
2022-08-03T08:53:48.984Z,2.63
2022-08-03T08:56:16.346Z,2.50
2022-08-03T08:58:59.224Z,2.20
2022-08-03T09:01:27.153Z,2.65
2022-08-03T09:03:54.523Z,3.00
2022-08-03T09:06:22.556Z,2.63
2022-08-03T09:08:49.771Z,2.78
2022-08-03T09:11:16.976Z,2.38
2022-08-03T09:13:44.098Z,2.90
2022-08-03T09:16:12.486Z,2.35
2022-08-03T09:18:39.944Z,2.78
2022-08-03T09:21:34.433Z,2.10
2022-08-03T09:24:05.854Z,2.28
2022-08-03T09:26:35.651Z,2.33
2022-08-03T09:29:13.425Z,2.55
2022-08-03T09:31:43.485Z,2.55
2022-08-03T09:34:12.055Z,2.72
2022-08-03T09:36:40.555Z,2.47
2022-08-03T09:39:10.905Z,2.60
2022-08-03T09:41:42.161Z,2.83
2022-08-03T09:44:09.422Z,2.47
2022-08-03T09:46:53.115Z,2.03
2022-08-03T09:49:20.255Z,2.50
2022-08-03T09:52:38.238Z,2.45
2022-08-03T09:54:34.640Z,2.60
2022-08-03T09:57:02.930Z,2.45
2022-08-03T09:59:31.325Z,2.55
2022-08-03T10:01:59.784Z,2.42
2022-08-03T10:04:26.933Z,2.78
2022-08-03T10:07:04.901Z,1.98
2022-08-03T10:09:32.165Z,2.25
2022-08-03T10:12:07.429Z,2.20
2022-08-03T10:14:34.642Z,2.38
2022-08-03T10:17:01.758Z,2.30
2022-08-03T10:19:28.891Z,1.92
2022-08-03T10:21:57.051Z,2.20
2022-08-03T10:24:26.679Z,2.28
2022-08-03T10:26:55.424Z,2.40
2022-08-03T10:29:25.383Z,2.38
2022-08-03T10:31:58.352Z,2.10
2022-08-03T10:34:35.153Z,2.03
2022-08-03T10:37:04.096Z,1.80
2022-08-03T10:39:31.349Z,1.90
2022-08-03T10:41:59.861Z,2.40
2022-08-03T10:44:33.366Z,2.25
2022-08-03T10:47:00.664Z,2.20
2022-08-03T10:49:34.697Z,1.90
2022-08-03T10:52:06.595Z,2.05
2022-08-03T10:55:07.360Z,1.90
2022-08-03T10:57:49.003Z,1.90
2022-08-03T11:00:30.334Z,2.10
2022-08-03T11:03:18.564Z,2.10
2022-08-03T11:05:48.804Z,1.52
2022-08-03T11:08:26.789Z,2.40
2022-08-03T11:10:55.698Z,1.88
2022-08-03T11:13:26.184Z,1.88
2022-08-03T11:16:01.650Z,1.73
2022-08-03T11:18:33.768Z,2.03
2022-08-03T11:21:01.321Z,2.42
2022-08-03T11:24:03.264Z,2.10
2022-08-03T11:26:29.491Z,2.03
2022-08-03T11:29:16.521Z,2.10
2022-08-03T11:31:51.919Z,1.70
2022-08-03T11:34:19.256Z,1.92
2022-08-03T11:37:05.282Z,1.83
2022-08-03T11:39:40.226Z,2.30
2022-08-03T11:42:26.850Z,1.80
2022-08-03T11:44:55.011Z,2.03
2022-08-03T11:47:23.170Z,1.83
2022-08-03T11:49:54.317Z,1.83
2022-08-03T11:52:26.780Z,1.80
2022-08-03T11:54:56.941Z,2.10
2022-08-03T11:59:11.018Z,2.15
2022-08-03T12:00:27.912Z,1.85
2022-08-03T12:03:00.378Z,2.10
2022-08-03T12:05:40.822Z,1.98
2022-08-03T12:08:10.315Z,2.13
2022-08-03T12:10:37.959Z,2.13
2022-08-03T12:16:03.097Z,1.70
2022-08-03T12:18:30.452Z,1.52
2022-08-03T12:21:04.923Z,1.70
2022-08-03T12:23:37.833Z,2.00
2022-08-03T12:26:15.213Z,2.00
2022-08-03T12:28:49.948Z,1.85
2022-08-03T12:31:18.320Z,2.22
2022-08-03T12:34:03.395Z,1.75
2022-08-03T12:36:31.670Z,2.03
2022-08-03T12:41:48.701Z,2.33
2022-08-03T12:44:16.540Z,1.85
2022-08-03T12:46:47.685Z,1.50
2022-08-03T12:49:18.639Z,1.98
2022-08-03T12:51:46.116Z,1.98
2022-08-03T12:54:24.873Z,2.08
2022-08-03T12:57:03.513Z,2.03
2022-08-03T12:59:34.669Z,2.20
2022-08-03T13:02:09.438Z,1.92
2022-08-03T13:04:37.598Z,1.85
2022-08-03T13:07:06.350Z,1.70
2022-08-03T13:09:47.410Z,1.95
2022-08-03T13:12:21.993Z,1.70
2022-08-03T13:17:31.420Z,1.98
2022-08-03T13:19:58.600Z,1.90
2022-08-03T13:22:27.367Z,2.10
2022-08-03T13:24:58.179Z,2.30
2022-08-03T13:28:04.598Z,2.13
2022-08-03T13:30:29.695Z,2.42
2022-08-03T13:32:58.652Z,2.45
2022-08-03T13:35:26.125Z,2.58
2022-08-03T13:37:53.621Z,2.70
2022-08-03T13:40:30.195Z,2.05
2022-08-03T13:42:57.768Z,2.35
2022-08-03T13:45:25.519Z,2.22
2022-08-03T13:47:53.427Z,2.30
2022-08-03T13:50:27.568Z,2.30
2022-08-03T13:52:56.122Z,2.00
2022-08-03T13:55:23.261Z,2.58
2022-08-03T13:58:03.614Z,2.33
2022-08-03T14:00:43.373Z,2.30
2022-08-03T14:03:14.033Z,2.22
2022-08-03T14:05:42.164Z,1.90
2022-08-03T14:08:09.685Z,1.90
2022-08-03T14:10:37.839Z,1.70
2022-08-03T14:13:05.582Z,2.10
2022-08-03T14:15:37.217Z,1.80
2022-08-03T14:18:05.599Z,2.30
2022-08-03T14:20:38.530Z,1.70
2022-08-03T14:23:14.780Z,1.70
2022-08-03T14:25:43.669Z,1.70
2022-08-03T14:28:17.791Z,1.70
2022-08-03T14:30:44.966Z,1.92
2022-08-03T14:33:16.736Z,1.58
2022-08-03T14:35:43.861Z,1.90
2022-08-03T14:38:11.174Z,1.45
2022-08-03T14:40:38.279Z,1.83
2022-08-03T14:43:05.473Z,1.50
2022-08-03T14:45:32.846Z,1.67
2022-08-03T14:50:50.162Z,1.48
2022-08-03T14:53:22.706Z,1.45
2022-08-03T14:55:55.486Z,1.42
2022-08-03T14:58:23.566Z,1.40
2022-08-03T15:01:00.004Z,1.45
2022-08-03T15:03:27.291Z,1.33
2022-08-03T15:06:04.249Z,1.88
2022-08-03T15:08:32.238Z,1.20
2022-08-03T15:11:00.101Z,1.48
2022-08-03T15:13:27.937Z,1.60
2022-08-03T15:15:55.670Z,1.60
2022-08-03T15:18:28.400Z,1.60
2022-08-03T15:23:40.734Z,1.70
2022-08-03T15:26:30.553Z,1.58
2022-08-03T15:28:59.323Z,1.88
2022-08-03T15:31:26.483Z,1.52
2022-08-03T15:33:53.644Z,1.50
2022-08-03T15:36:21.208Z,1.50
2022-08-03T15:41:15.774Z,1.63
2022-08-03T15:43:47.511Z,1.40
2022-08-03T15:46:30.513Z,1.42
2022-08-03T15:48:57.862Z,2.08
2022-08-03T15:51:25.110Z,1.40
2022-08-03T15:53:52.402Z,1.80
2022-08-03T15:56:19.565Z,1.42
2022-08-03T15:59:09.135Z,1.30
2022-08-03T16:01:34.218Z,1.35
2022-08-03T16:04:01.344Z,1.75
2022-08-03T16:06:29.905Z,1.33
2022-08-03T16:09:02.759Z,1.45
2022-08-03T16:11:29.889Z,1.75
2022-08-03T16:14:11.847Z,1.70
2022-08-03T16:16:44.134Z,1.30
2022-08-03T16:19:11.316Z,1.73
2022-08-03T16:21:47.969Z,1.50
2022-08-03T16:24:17.539Z,1.60
2022-08-03T16:26:54.823Z,1.42
2022-08-03T16:29:22.621Z,1.40
2022-08-03T16:31:51.644Z,1.60
2022-08-03T16:34:19.197Z,1.50
2022-08-03T16:36:46.303Z,1.40
2022-08-03T16:39:13.561Z,1.50
2022-08-03T16:41:54.042Z,1.40
2022-08-03T16:44:28.704Z,1.27
2022-08-03T16:46:55.806Z,1.88
2022-08-03T16:49:54.128Z,1.60
2022-08-03T16:52:10.070Z,1.52
2022-08-03T16:54:40.259Z,1.27
2022-08-03T16:57:08.613Z,1.40
2022-08-03T16:59:36.724Z,1.85
2022-08-03T17:02:09.708Z,1.30
2022-08-03T17:04:40.106Z,1.73
2022-08-03T17:07:08.845Z,1.50
2022-08-03T17:09:38.450Z,1.70
2022-08-03T17:12:07.240Z,1.65
2022-08-03T17:14:34.425Z,1.63
2022-08-03T17:17:02.549Z,1.65
2022-08-03T17:19:32.285Z,1.60
2022-08-03T17:22:10.907Z,1.50
2022-08-03T17:24:41.506Z,1.73
2022-08-03T17:28:41.794Z,1.45
2022-08-03T17:30:03.886Z,1.70
2022-08-03T17:32:33.307Z,1.38
2022-08-03T17:35:01.460Z,1.30
2022-08-03T17:37:57.656Z,1.60
2022-08-03T17:40:17.931Z,1.75
2022-08-03T17:42:50.549Z,1.40
2022-08-03T17:45:18.857Z,1.70
2022-08-03T17:47:46.157Z,1.52
2022-08-03T17:50:26.105Z,1.58
2022-08-03T17:53:07.510Z,1.50
2022-08-03T17:55:56.535Z,1.70
2022-08-03T17:58:36.224Z,1.67
2022-08-03T18:02:02.719Z,1.30
2022-08-03T18:04:11.986Z,1.40
2022-08-03T18:06:55.517Z,1.60
2022-08-03T18:10:06.521Z,1.73
2022-08-03T18:12:14.462Z,1.88
2022-08-03T18:14:59.200Z,1.40
2022-08-03T18:17:55.887Z,1.58
2022-08-03T18:20:34.792Z,1.65
2022-08-03T18:25:57.663Z,1.70
2022-08-03T18:28:28.780Z,1.50
2022-08-03T18:30:56.628Z,1.65
2022-08-03T18:34:18.324Z,1.50
2022-08-03T18:36:18.164Z,1.50
2022-08-03T18:38:53.839Z,1.17
2022-08-03T18:41:33.521Z,1.10
2022-08-03T18:44:06.579Z,1.38
2022-08-03T18:46:51.106Z,1.45
2022-08-03T18:49:25.997Z,1.27
2022-08-03T18:52:12.154Z,1.60
2022-08-03T18:55:03.855Z,1.30
2022-08-03T18:57:55.559Z,1.30
2022-08-03T19:00:24.300Z,1.60
2022-08-03T19:02:52.169Z,1.20
2022-08-03T19:05:22.780Z,1.40
2022-08-03T19:07:59.744Z,1.50
2022-08-03T19:10:31.060Z,1.42
2022-08-03T19:13:03.861Z,1.40
2022-08-03T19:15:37.054Z,1.17
2022-08-03T19:18:11.153Z,1.48
2022-08-03T19:20:38.426Z,1.58
2022-08-03T19:23:06.587Z,1.75
2022-08-03T19:25:38.534Z,1.42
2022-08-03T19:28:07.769Z,1.50
2022-08-03T19:30:40.101Z,1.50
2022-08-03T19:33:12.053Z,1.30
2022-08-03T19:35:52.159Z,1.80
2022-08-03T19:38:28.374Z,1.35
2022-08-03T19:41:02.306Z,1.30
2022-08-03T19:43:53.210Z,1.40
2022-08-03T19:46:22.598Z,1.40
2022-08-03T19:49:02.746Z,1.30
2022-08-03T19:52:01.138Z,1.30
2022-08-03T19:54:29.835Z,1.83
2022-08-03T19:57:01.894Z,1.40
2022-08-03T19:59:30.219Z,1.55
2022-08-03T20:01:58.133Z,1.48
2022-08-03T20:04:25.611Z,1.50
2022-08-03T20:06:57.016Z,1.85
2022-08-03T20:09:24.744Z,1.50
2022-08-03T20:11:57.651Z,1.70
2022-08-03T20:14:26.501Z,1.52
2022-08-03T20:16:53.914Z,1.42
2022-08-03T20:19:21.424Z,1.45
2022-08-03T20:21:49.431Z,1.63
2022-08-03T20:24:27.156Z,1.55
2022-08-03T20:26:56.613Z,1.85
2022-08-03T20:29:42.558Z,1.58
2022-08-03T20:32:16.726Z,1.60
2022-08-03T20:34:44.652Z,1.95
2022-08-03T20:37:16.778Z,2.05
2022-08-03T20:39:49.530Z,1.90
2022-08-03T20:42:19.139Z,1.40
2022-08-03T20:47:36.401Z,1.60
2022-08-03T20:50:09.025Z,1.55
2022-08-03T20:52:49.379Z,1.52
2022-08-03T20:58:07.372Z,2.08
2022-08-03T21:00:34.535Z,2.20
2022-08-03T21:03:01.781Z,1.52
2022-08-03T21:05:47.654Z,1.90
2022-08-03T21:08:16.369Z,1.60
2022-08-03T21:10:43.592Z,1.70
2022-08-03T21:12:57.898Z,1.63
2022-08-03T21:13:07.321Z,1.77
2022-08-03T21:13:07.724Z,1.75
2022-08-03T21:13:23.421Z,1.65
2022-08-03T21:16:06.100Z,1.88
2022-08-03T21:18:48.405Z,1.80
2022-08-03T21:21:16.607Z,2.03
2022-08-03T21:23:48.074Z,1.95
2022-08-03T21:26:16.832Z,2.10
2022-08-03T21:28:44.756Z,2.35
2022-08-03T21:31:12.005Z,1.83
2022-08-03T21:33:39.180Z,1.75
2022-08-03T21:36:08.167Z,2.10
2022-08-03T21:38:36.133Z,1.95
2022-08-03T21:43:30.586Z,1.67
2022-08-03T21:46:02.008Z,1.80
2022-08-03T21:48:31.385Z,1.65
2022-08-03T21:50:58.546Z,2.00
2022-08-03T21:53:28.062Z,1.83
2022-08-03T21:56:17.626Z,2.40
2022-08-03T21:58:52.047Z,1.85
2022-08-03T22:01:22.616Z,2.03
2022-08-03T22:03:53.914Z,2.30
2022-08-03T22:06:22.082Z,1.80
2022-08-03T22:08:50.752Z,2.05
2022-08-03T22:11:18.178Z,2.08
2022-08-03T22:13:45.570Z,1.80
2022-08-03T22:16:13.946Z,1.95
2022-08-03T22:18:42.469Z,1.75
2022-08-03T22:21:14.693Z,2.15
2022-08-03T22:23:45.706Z,2.20
2022-08-03T22:26:15.348Z,2.00
2022-08-03T22:28:43.009Z,2.10
2022-08-03T22:31:57.639Z,1.90
2022-08-03T22:33:57.620Z,2.47
2022-08-03T22:36:24.960Z,2.13
2022-08-03T22:38:53.994Z,2.17
2022-08-03T22:41:21.834Z,2.00
2022-08-03T22:43:49.693Z,2.50
2022-08-03T22:46:22.081Z,2.42
2022-08-03T22:48:49.275Z,2.00
2022-08-03T22:51:19.158Z,1.88
2022-08-03T22:53:46.583Z,1.92
2022-08-03T22:56:13.772Z,1.88
2022-08-03T22:58:41.025Z,1.88
2022-08-03T23:01:09.531Z,1.90
2022-08-03T23:04:00.479Z,1.90
2022-08-03T23:06:26.668Z,2.03
2022-08-03T23:08:54.245Z,1.85
2022-08-03T23:11:22.385Z,2.47
2022-08-03T23:13:50.954Z,2.00
2022-08-03T23:16:28.643Z,2.20
2022-08-03T23:18:57.162Z,2.40
2022-08-03T23:22:00.658Z,2.30
2022-08-03T23:24:17.746Z,2.30
2022-08-03T23:26:57.244Z,2.40
2022-08-03T23:29:24.444Z,2.00
2022-08-03T23:31:53.342Z,2.10
2022-08-03T23:34:39.942Z,1.95
2022-08-03T23:37:08.406Z,2.15
2022-08-03T23:39:36.341Z,2.17
2022-08-03T23:42:05.604Z,1.70
2022-08-03T23:44:35.741Z,2.00
2022-08-03T23:47:03.006Z,2.10
2022-08-03T23:49:30.219Z,1.90
2022-08-03T23:52:00.246Z,2.13
2022-08-03T23:54:36.515Z,2.10
2022-08-03T23:57:18.678Z,2.40
